EGLLEGKA

Guest
Details From EGLL - London Heathrow
To EGKA - Shoreham
Flight Number -
Tags Generated
Created
Modified
Stats Distance 38 nm / 71 km
Max Altitude 0 ft / 0 m
Waypoints 2
Social Downloads 0
Likes 0
Share VATSIM

Download

Looking for another format? Having issues loading an existing format? Contact us
Advertisement - Login to hide

Notes

Generated

Route

EGLL EGKA

ID Type Via Altitude Latitude Longitude Leg Dist Tot Dist Heading (true) Name
O EGLL APT - 0 ft / 0 m 51.46477˚ -0.48695˚ - 0 nm - -
O EGKA APT - 0 ft / 0 m 50.83834˚ -0.29452˚ 38 nm 38 nm 169° / 169° Shoreham

Altitude Profile

Advertisement - Login to hide

EGLL

Details ICAO EGLL (LHR)
Name London Heathrow
Region United Kingdom
Timezone Europe/London (UTC+0.0)
Stats Elevation 83 ft / 25 m (AMSL)
Location 51.471218° -0.460978°
Runways 2
Magnetic Variation 0.561° W

METAR

EGLL 111520Z AUTO 35009KT 310V030 9999 NCD 03/M00 Q0986 NOSIG

Decode

TAF

TAF EGLL 111101Z 1112/1218 03013KT 9999 BKN025 TEMPO 1112/1116 02016G28KT 4000 -RASN BKN006 PROB30 TEMPO 1112/1116 1200 SN BKN003 BECMG 1113/1116 33012KT BECMG 1116/1119 CAVOK PROB30 TEMPO 1116/1119 34015G26KT BECMG 1200/1203 27004KT PROB30 TEMPO 1203/1209 6000 PROB30 1216/1218 7000

Decode

Departure Runways

ID Width Length Bearing (true) Bearing (mag) Surface Threshold Offset Overrun Length
09L 164 ft / 50 m 12,811 ft / 3,905 m 89.64° 90.20° Asphalt 1,004 ft / 306 m 0 ft / 0 m
09R 164 ft / 50 m 12,019 ft / 3,663 m 89.67° 90.23° Asphalt 1,007 ft / 307 m 0 ft / 0 m
27L 164 ft / 50 m 12,019 ft / 3,663 m 269.71° 270.27° Asphalt 0 ft / 0 m 69 ft / 21 m
27R 164 ft / 50 m 12,811 ft / 3,905 m 269.69° 270.25° Asphalt 0 ft / 0 m 69 ft / 21 m

EGKA

Details ICAO EGKA (ESH)
Name Shoreham
Region United Kingdom
Timezone Europe/London (UTC+0.0)
Stats Elevation 7 ft / 2 m (AMSL)
Location 50.835805° -0.294806°
Runways 4
Magnetic Variation 0.435° W

METAR

EGKA 111520Z 35014KT 8000 BKN010 03/02 Q0984

Decode

TAF

Not found

Destination Runways

ID Width Length Bearing (true) Bearing (mag) Surface Threshold Offset Overrun Length
02 59 ft / 18 m 3,408 ft / 1,039 m 21.56° 22.00° Asphalt 548 ft / 167 m 0 ft / 0 m
02R 59 ft / 18 m 2,849 ft / 868 m 21.56° 22.00° Grass 171 ft / 52 m 0 ft / 0 m
07 164 ft / 50 m 2,883 ft / 879 m 63.45° 63.89° Grass 0 ft / 0 m 0 ft / 0 m
13 59 ft / 18 m 1,739 ft / 530 m 124.90° 125.34° Grass 0 ft / 0 m 0 ft / 0 m
20 59 ft / 18 m 3,408 ft / 1,039 m 201.56° 202.00° Asphalt 367 ft / 112 m 0 ft / 0 m
20L 59 ft / 18 m 2,849 ft / 868 m 201.56° 202.00° Grass 171 ft / 52 m 0 ft / 0 m
25 164 ft / 50 m 2,883 ft / 879 m 243.46° 243.90° Grass 285 ft / 87 m 0 ft / 0 m
31 59 ft / 18 m 1,739 ft / 530 m 304.91° 305.35° Grass 394 ft / 120 m 0 ft / 0 m

Popular Alternatives